createdAt,value
2023-03-03T00:00:20.408Z,24.50
2023-03-03T00:02:47.721Z,24.00
2023-03-03T00:05:18.097Z,22.80
2023-03-03T00:07:45.576Z,23.30
2023-03-03T00:10:13.039Z,21.10
2023-03-03T00:12:48.454Z,20.50
2023-03-03T00:15:20.032Z,21.10
2023-03-03T00:17:50.495Z,19.40
2023-03-03T00:20:31.190Z,19.80
2023-03-03T00:23:06.196Z,20.10
2023-03-03T00:25:34.003Z,18.30
2023-03-03T00:28:23.618Z,18.00
2023-03-03T00:30:52.109Z,18.70
2023-03-03T00:33:54.118Z,17.60
2023-03-03T00:36:37.984Z,18.00
2023-03-03T00:39:20.929Z,16.90
2023-03-03T00:41:49.559Z,17.00
2023-03-03T00:44:39.094Z,16.30
2023-03-03T00:47:31.629Z,15.20
2023-03-03T00:50:05.643Z,15.60
2023-03-03T00:52:38.382Z,15.10
2023-03-03T00:55:06.164Z,15.30
2023-03-03T00:57:33.457Z,15.10
2023-03-03T01:00:00.687Z,13.80
2023-03-03T01:02:27.686Z,14.70
2023-03-03T01:04:56.958Z,13.20
2023-03-03T01:07:24.878Z,12.20
2023-03-03T01:09:51.772Z,12.40
2023-03-03T01:12:19.296Z,12.30
2023-03-03T01:14:48.659Z,11.80
2023-03-03T01:17:16.094Z,10.90
2023-03-03T01:19:44.851Z,10.80
2023-03-03T01:22:11.627Z,11.50
2023-03-03T01:24:38.948Z,9.80
2023-03-03T01:27:05.695Z,10.60
2023-03-03T01:29:36.462Z,10.20
2023-03-03T01:32:03.535Z,8.60
2023-03-03T01:34:30.469Z,10.30
2023-03-03T01:37:00.383Z,9.80
2023-03-03T01:39:27.352Z,9.20
2023-03-03T01:41:54.657Z,10.60
2023-03-03T01:44:21.472Z,8.80
2023-03-03T01:46:52.363Z,9.40
2023-03-03T01:49:23.708Z,10.30
2023-03-03T01:51:53.760Z,9.80
2023-03-03T01:54:29.888Z,9.80
2023-03-03T01:56:59.841Z,9.40
2023-03-03T01:59:29.016Z,10.30
2023-03-03T02:01:55.759Z,10.10
2023-03-03T02:04:25.865Z,11.10
2023-03-03T02:07:06.290Z,10.70
2023-03-03T02:09:39.523Z,11.40
2023-03-03T02:12:08.730Z,11.90
2023-03-03T02:14:35.734Z,12.10
2023-03-03T02:17:03.041Z,11.50
2023-03-03T02:19:51.584Z,11.20
2023-03-03T02:22:30.852Z,11.80
2023-03-03T02:25:00.331Z,11.60
2023-03-03T02:27:28.093Z,12.10
2023-03-03T02:29:55.561Z,12.50
2023-03-03T02:32:22.373Z,10.80
2023-03-03T02:34:51.590Z,12.90
2023-03-03T02:37:18.740Z,13.40
2023-03-03T02:39:46.116Z,12.60
2023-03-03T02:42:25.361Z,13.20
2023-03-03T02:44:54.389Z,11.70
2023-03-03T02:47:21.031Z,11.10
2023-03-03T02:49:47.812Z,11.10
2023-03-03T02:52:17.623Z,10.70
2023-03-03T02:54:45.576Z,11.00
2023-03-03T02:57:13.228Z,11.60
2023-03-03T02:59:39.959Z,11.50
2023-03-03T03:02:12.377Z,11.80
2023-03-03T03:04:39.616Z,12.30
2023-03-03T03:07:07.143Z,12.70
2023-03-03T03:09:35.683Z,12.00
2023-03-03T03:12:02.813Z,11.70
2023-03-03T03:14:33.960Z,11.00
2023-03-03T03:17:01.587Z,12.40
2023-03-03T03:19:29.037Z,11.50
2023-03-03T03:21:56.744Z,10.90
2023-03-03T03:24:23.745Z,12.40
2023-03-03T03:26:57.295Z,11.60
2023-03-03T03:29:24.445Z,11.10
2023-03-03T03:31:52.433Z,11.50
2023-03-03T03:34:19.197Z,11.70
2023-03-03T03:36:49.434Z,11.40
2023-03-03T03:39:36.148Z,11.20
2023-03-03T03:42:03.656Z,12.00
2023-03-03T03:44:31.372Z,11.10
2023-03-03T03:46:58.924Z,11.30
2023-03-03T03:49:26.750Z,11.80
2023-03-03T03:51:54.901Z,11.20
2023-03-03T03:54:23.109Z,11.90
2023-03-03T03:56:50.113Z,11.40
2023-03-03T03:59:16.792Z,12.80
2023-03-03T04:01:45.435Z,13.10
2023-03-03T04:04:12.609Z,11.80
2023-03-03T04:06:40.073Z,13.20
2023-03-03T04:09:08.416Z,11.90
2023-03-03T04:11:36.066Z,13.00
2023-03-03T04:14:04.902Z,12.70
2023-03-03T04:16:32.306Z,16.30
2023-03-03T04:18:59.103Z,14.90
2023-03-03T04:21:27.352Z,13.60
2023-03-03T04:23:55.691Z,11.80
2023-03-03T04:26:22.631Z,12.70
2023-03-03T04:28:49.719Z,13.10
2023-03-03T04:31:17.254Z,13.60
2023-03-03T04:33:44.128Z,13.00
2023-03-03T04:36:11.561Z,14.30
2023-03-03T04:38:38.593Z,13.80
2023-03-03T04:41:05.754Z,13.90
2023-03-03T04:43:34.387Z,14.10
2023-03-03T04:46:01.458Z,12.60
2023-03-03T04:48:29.050Z,14.60
2023-03-03T04:50:56.058Z,13.10
2023-03-03T04:53:24.595Z,13.10
2023-03-03T04:55:52.652Z,12.80
2023-03-03T04:58:20.549Z,14.60
2023-03-03T05:00:47.860Z,13.50
2023-03-03T05:03:18.816Z,13.90
2023-03-03T05:05:49.132Z,14.00
2023-03-03T05:08:16.898Z,14.60
2023-03-03T05:10:44.015Z,13.10
2023-03-03T05:13:16.653Z,14.30
2023-03-03T05:15:52.113Z,13.60
2023-03-03T05:18:19.636Z,14.50
2023-03-03T05:20:49.341Z,14.90
2023-03-03T05:23:17.569Z,14.80
2023-03-03T05:25:45.128Z,13.60
2023-03-03T05:28:12.282Z,13.10
2023-03-03T05:30:39.274Z,12.90
2023-03-03T05:33:06.026Z,13.30
2023-03-03T05:35:33.971Z,11.30
2023-03-03T05:38:05.320Z,11.50
2023-03-03T05:40:32.400Z,11.30
2023-03-03T05:42:59.461Z,11.00
2023-03-03T05:45:27.576Z,11.00
2023-03-03T05:47:54.568Z,10.40
2023-03-03T05:50:21.982Z,11.20
2023-03-03T05:52:49.978Z,11.00
2023-03-03T05:55:17.928Z,10.00
2023-03-03T05:57:45.662Z,9.10
2023-03-03T06:00:15.016Z,10.30
2023-03-03T06:02:43.623Z,10.70
2023-03-03T06:05:11.281Z,10.00
2023-03-03T06:07:39.468Z,11.20
2023-03-03T06:10:06.960Z,11.70
2023-03-03T06:12:40.616Z,11.20
2023-03-03T06:15:08.687Z,10.60
2023-03-03T06:18:12.688Z,11.30
2023-03-03T06:20:40.500Z,10.90
2023-03-03T06:23:07.416Z,9.70
2023-03-03T06:25:35.517Z,10.50
2023-03-03T06:28:03.355Z,10.40
2023-03-03T06:30:32.389Z,10.30
2023-03-03T06:32:59.345Z,9.80
2023-03-03T06:35:26.530Z,9.60
2023-03-03T06:37:53.604Z,11.70
2023-03-03T06:40:20.515Z,10.70
2023-03-03T06:42:47.956Z,10.20
2023-03-03T06:45:15.873Z,9.20
2023-03-03T06:47:42.635Z,10.00
2023-03-03T06:50:11.738Z,9.20
2023-03-03T06:52:38.647Z,8.80
2023-03-03T06:55:22.510Z,11.30
2023-03-03T06:57:55.218Z,9.50
2023-03-03T07:00:25.846Z,10.40
2023-03-03T07:03:01.738Z,10.50
2023-03-03T07:05:32.474Z,9.60
2023-03-03T07:08:00.381Z,10.00
2023-03-03T07:10:28.655Z,9.80
2023-03-03T07:13:06.564Z,9.20
2023-03-03T07:15:34.879Z,9.90
2023-03-03T07:18:02.713Z,10.10
2023-03-03T07:20:33.270Z,10.60
2023-03-03T07:23:00.211Z,10.60
2023-03-03T07:25:34.820Z,11.30
2023-03-03T07:28:20.973Z,10.20
2023-03-03T07:30:48.017Z,10.10
2023-03-03T07:33:30.858Z,10.00
2023-03-03T07:35:58.634Z,10.30
2023-03-03T07:38:30.614Z,9.20
2023-03-03T07:40:58.852Z,9.70
2023-03-03T07:43:38.990Z,9.30
2023-03-03T07:46:09.442Z,11.00
2023-03-03T07:48:39.504Z,9.60
2023-03-03T07:51:32.573Z,10.20
2023-03-03T07:54:24.639Z,10.20
2023-03-03T07:56:51.483Z,9.90
2023-03-03T07:59:27.139Z,11.10
2023-03-03T08:01:55.874Z,10.10
2023-03-03T08:04:26.906Z,11.10
2023-03-03T08:06:54.241Z,9.20
2023-03-03T08:09:37.468Z,10.20
2023-03-03T08:12:08.934Z,9.80
2023-03-03T08:14:37.377Z,10.30
2023-03-03T08:17:27.690Z,11.40
2023-03-03T08:19:54.477Z,10.60
2023-03-03T08:22:31.344Z,10.50
2023-03-03T08:24:58.065Z,10.50
2023-03-03T08:27:24.635Z,10.80
2023-03-03T08:29:51.237Z,11.10
2023-03-03T08:32:18.073Z,10.20
2023-03-03T08:34:45.046Z,11.10
2023-03-03T08:37:15.881Z,10.70
2023-03-03T08:39:43.527Z,9.90
2023-03-03T08:42:10.186Z,10.60
2023-03-03T08:44:37.598Z,10.10
2023-03-03T08:47:05.193Z,9.60
2023-03-03T08:49:34.922Z,10.40
2023-03-03T08:52:01.617Z,9.90
2023-03-03T08:54:28.578Z,10.00
2023-03-03T08:56:55.662Z,10.10
2023-03-03T08:59:22.550Z,10.40
2023-03-03T09:01:49.464Z,9.80
2023-03-03T09:04:17.397Z,11.00
2023-03-03T09:06:45.111Z,10.00
2023-03-03T09:09:11.916Z,10.30
2023-03-03T09:11:44.467Z,9.40
2023-03-03T09:14:13.347Z,11.50
2023-03-03T09:18:42.307Z,11.50
2023-03-03T09:21:36.706Z,11.50
2023-03-03T09:24:05.555Z,10.20
2023-03-03T09:26:43.501Z,11.00
2023-03-03T09:29:11.550Z,12.10
2023-03-03T09:31:53.468Z,11.80
2023-03-03T09:34:41.275Z,10.50
2023-03-03T09:37:22.099Z,10.80
2023-03-03T09:39:52.397Z,10.90
2023-03-03T09:43:04.273Z,11.10
2023-03-03T09:45:48.672Z,10.70
2023-03-03T09:48:33.722Z,11.40
2023-03-03T09:51:32.369Z,11.30
2023-03-03T09:54:16.463Z,11.90
2023-03-03T09:56:49.375Z,12.70
2023-03-03T09:59:42.391Z,13.00
2023-03-03T10:02:40.298Z,11.40
2023-03-03T10:05:30.833Z,10.80
2023-03-03T10:08:12.864Z,10.10
2023-03-03T10:10:49.100Z,10.00
2023-03-03T10:13:49.806Z,9.10
2023-03-03T10:16:38.311Z,10.00
2023-03-03T10:19:15.536Z,9.10
2023-03-03T10:21:52.108Z,8.80
2023-03-03T10:24:30.724Z,8.90
2023-03-03T10:27:12.494Z,7.40
2023-03-03T10:29:42.059Z,7.40
2023-03-03T10:32:28.764Z,7.50
2023-03-03T10:35:15.652Z,11.40
2023-03-03T10:37:47.536Z,9.40
2023-03-03T10:40:30.197Z,6.90
2023-03-03T10:43:07.704Z,7.30
2023-03-03T10:45:39.798Z,6.40
2023-03-03T10:48:23.316Z,7.40
2023-03-03T10:50:51.761Z,7.30
2023-03-03T10:53:33.049Z,7.50
2023-03-03T10:56:30.276Z,7.40
2023-03-03T10:59:31.558Z,6.90
2023-03-03T11:02:03.114Z,6.70
2023-03-03T11:05:00.629Z,7.40
2023-03-03T11:07:57.811Z,6.90
2023-03-03T11:10:49.044Z,6.70
2023-03-03T11:13:31.089Z,5.90
2023-03-03T11:15:59.869Z,7.80
2023-03-03T11:19:12.562Z,7.30
2023-03-03T11:21:48.628Z,7.90
2023-03-03T11:25:02.239Z,6.20
2023-03-03T11:28:07.364Z,5.30
2023-03-03T11:30:59.968Z,6.90
2023-03-03T11:34:06.715Z,6.40
2023-03-03T11:36:42.734Z,6.20
2023-03-03T11:39:16.644Z,5.90
2023-03-03T11:42:18.856Z,6.40
2023-03-03T11:45:05.845Z,6.40
2023-03-03T11:47:39.554Z,6.20
2023-03-03T11:50:21.733Z,6.50
2023-03-03T11:53:00.814Z,6.10
2023-03-03T11:55:33.440Z,5.60
2023-03-03T11:58:07.524Z,4.80
2023-03-03T12:00:45.320Z,4.80
2023-03-03T12:03:35.916Z,4.90
2023-03-03T12:06:41.923Z,4.90
2023-03-03T12:09:27.352Z,4.60
2023-03-03T12:12:00.990Z,4.40
2023-03-03T12:14:43.921Z,4.50
2023-03-03T12:17:46.276Z,4.10
2023-03-03T12:20:26.831Z,4.60
2023-03-03T12:23:07.660Z,4.50
2023-03-03T12:26:08.466Z,4.40
2023-03-03T12:29:17.948Z,4.60
2023-03-03T12:31:51.386Z,6.00
2023-03-03T12:34:24.957Z,6.30
2023-03-03T12:37:12.734Z,6.60
2023-03-03T12:39:50.716Z,5.50
2023-03-03T12:42:18.727Z,4.80
2023-03-03T12:44:59.464Z,4.70
2023-03-03T12:47:40.957Z,4.30
2023-03-03T12:50:44.264Z,4.50
2023-03-03T12:53:22.061Z,8.90
2023-03-03T12:55:55.557Z,5.40
2023-03-03T12:58:36.846Z,4.80
2023-03-03T13:01:30.369Z,6.10
2023-03-03T13:04:05.335Z,6.50
2023-03-03T13:06:42.564Z,7.50
2023-03-03T13:09:24.256Z,8.20
2023-03-03T13:12:25.276Z,8.60
2023-03-03T13:15:10.388Z,9.20
2023-03-03T13:17:41.208Z,10.00
2023-03-03T13:20:25.840Z,10.80
2023-03-03T13:23:16.145Z,11.80
2023-03-03T13:25:57.709Z,11.40
2023-03-03T13:28:34.110Z,11.90
2023-03-03T13:31:13.086Z,11.20
2023-03-03T13:33:41.106Z,11.00
2023-03-03T13:36:09.837Z,10.20
2023-03-03T13:38:42.493Z,11.20
2023-03-03T13:41:23.876Z,12.10
2023-03-03T13:44:06.078Z,13.00
2023-03-03T13:46:41.939Z,13.60
2023-03-03T13:49:28.941Z,11.60
2023-03-03T13:52:07.181Z,11.70
2023-03-03T13:54:55.763Z,12.60
2023-03-03T13:58:11.346Z,11.90
2023-03-03T14:00:49.902Z,11.00
2023-03-03T14:03:50.262Z,11.60
2023-03-03T14:06:20.379Z,11.40
2023-03-03T14:09:56.054Z,12.30
2023-03-03T14:13:02.702Z,12.00
2023-03-03T14:15:33.169Z,11.00
2023-03-03T14:18:06.259Z,11.50
2023-03-03T14:20:53.871Z,10.90
2023-03-03T14:23:32.604Z,11.00
2023-03-03T14:26:03.640Z,10.90
2023-03-03T14:28:42.288Z,10.10
2023-03-03T14:31:24.414Z,11.20
2023-03-03T14:34:13.037Z,10.70
2023-03-03T14:36:43.025Z,10.60
2023-03-03T14:39:34.117Z,10.50
2023-03-03T14:42:14.315Z,10.70
2023-03-03T14:44:46.467Z,10.10
2023-03-03T14:47:22.003Z,10.30
2023-03-03T14:49:51.599Z,10.60
2023-03-03T14:52:22.253Z,9.70
2023-03-03T14:54:52.384Z,10.50
2023-03-03T14:57:37.637Z,9.60
2023-03-03T15:00:14.852Z,9.80
2023-03-03T15:02:51.813Z,10.00
2023-03-03T15:05:24.944Z,10.20
2023-03-03T15:07:59.334Z,12.10
2023-03-03T15:13:20.264Z,11.20
2023-03-03T15:16:00.361Z,12.30
2023-03-03T15:18:35.678Z,12.00
2023-03-03T15:21:11.624Z,10.60
2023-03-03T15:24:17.869Z,10.60
2023-03-03T15:26:49.093Z,9.40
2023-03-03T15:29:33.355Z,8.60
2023-03-03T15:32:06.157Z,8.70
2023-03-03T15:34:51.565Z,8.30
2023-03-03T15:37:39.481Z,7.80
2023-03-03T15:40:21.862Z,8.00
2023-03-03T15:43:06.441Z,8.90
2023-03-03T15:45:46.211Z,10.60
2023-03-03T15:48:31.688Z,10.60
2023-03-03T15:51:05.678Z,11.40
2023-03-03T15:53:37.698Z,10.50
2023-03-03T15:56:16.360Z,9.30
2023-03-03T15:58:54.452Z,10.20
2023-03-03T16:01:42.454Z,10.10
2023-03-03T16:04:16.470Z,12.10
2023-03-03T16:07:06.172Z,10.80
2023-03-03T16:09:57.760Z,10.40
2023-03-03T16:12:42.439Z,9.50
2023-03-03T16:15:30.363Z,10.90
2023-03-03T16:18:12.248Z,10.90
2023-03-03T16:20:50.642Z,10.90
2023-03-03T16:23:37.976Z,10.70
2023-03-03T16:26:19.482Z,9.00
2023-03-03T16:29:13.163Z,8.50
2023-03-03T16:31:45.904Z,9.50
2023-03-03T16:34:16.471Z,9.10
2023-03-03T16:37:24.556Z,8.50
2023-03-03T16:40:21.191Z,8.80
2023-03-03T16:43:44.575Z,9.30
2023-03-03T16:46:42.566Z,9.60
2023-03-03T16:49:52.167Z,10.40
2023-03-03T16:53:09.564Z,10.50
2023-03-03T16:56:10.328Z,11.40
2023-03-03T16:59:09.627Z,12.80
2023-03-03T17:02:44.569Z,12.20
2023-03-03T17:09:03.912Z,11.10
2023-03-03T17:12:22.929Z,13.00
2023-03-03T17:15:32.629Z,13.10
2023-03-03T17:18:34.343Z,14.40
2023-03-03T17:21:33.986Z,14.70
2023-03-03T17:24:36.639Z,15.70
2023-03-03T17:27:35.367Z,15.80
2023-03-03T17:30:45.531Z,17.30
2023-03-03T17:33:50.211Z,17.60
2023-03-03T17:47:30.172Z,20.60
2023-03-03T17:50:34.348Z,19.50
2023-03-03T17:53:23.398Z,19.40
2023-03-03T17:56:05.314Z,19.00
2023-03-03T17:58:32.603Z,19.80
2023-03-03T18:01:30.478Z,19.80
2023-03-03T18:04:19.026Z,20.10
2023-03-03T18:07:08.269Z,20.50
2023-03-03T18:09:49.111Z,21.40
2023-03-03T18:12:31.651Z,19.20
2023-03-03T18:15:23.676Z,19.80
2023-03-03T18:18:09.692Z,21.10
2023-03-03T18:20:56.889Z,20.30
2023-03-03T18:26:34.652Z,18.30
2023-03-03T18:29:26.511Z,19.00
2023-03-03T18:31:53.596Z,18.90
2023-03-03T18:34:20.702Z,20.00
2023-03-03T18:36:59.335Z,21.10
2023-03-03T18:39:38.350Z,20.80
2023-03-03T18:42:12.046Z,21.60
2023-03-03T18:44:39.987Z,21.00
2023-03-03T18:47:07.946Z,19.70
2023-03-03T18:49:57.121Z,21.00
2023-03-03T18:52:25.200Z,21.60
2023-03-03T18:55:09.336Z,21.80
2023-03-03T18:57:36.899Z,22.30
2023-03-03T19:00:16.557Z,21.90
2023-03-03T19:02:52.069Z,23.10
2023-03-03T19:05:46.491Z,20.70
2023-03-03T19:08:25.504Z,21.10
2023-03-03T19:10:58.962Z,21.60
2023-03-03T19:13:31.897Z,21.50
2023-03-03T19:16:06.289Z,20.50
2023-03-03T19:18:35.325Z,21.30
2023-03-03T19:21:31.771Z,20.60
2023-03-03T19:24:00.172Z,20.40
2023-03-03T19:26:30.379Z,20.90
2023-03-03T19:29:20.554Z,20.40
2023-03-03T19:31:54.060Z,19.20
2023-03-03T19:34:41.065Z,19.90
2023-03-03T19:37:11.049Z,19.90
2023-03-03T19:39:54.108Z,20.20
2023-03-03T19:42:26.168Z,21.10
2023-03-03T19:45:32.578Z,20.60
2023-03-03T19:48:06.293Z,18.50
2023-03-03T19:50:55.269Z,19.50
2023-03-03T19:53:37.931Z,20.20
2023-03-03T19:56:38.968Z,20.00
2023-03-03T19:59:24.456Z,20.70
2023-03-03T20:02:02.038Z,20.30
2023-03-03T20:04:35.029Z,18.20
2023-03-03T20:07:34.343Z,20.20
2023-03-03T20:10:07.584Z,19.40
2023-03-03T20:12:52.812Z,19.60
2023-03-03T20:15:37.708Z,21.00
2023-03-03T20:18:34.530Z,19.30
2023-03-03T20:21:19.717Z,19.70
2023-03-03T20:24:05.103Z,17.30
2023-03-03T20:26:44.650Z,19.00
2023-03-03T20:29:34.791Z,19.70
2023-03-03T20:32:07.856Z,20.20
2023-03-03T20:37:20.176Z,18.70
2023-03-03T20:40:12.496Z,19.30
2023-03-03T20:43:05.883Z,19.60
2023-03-03T20:46:02.120Z,20.60
2023-03-03T20:48:38.336Z,19.20
2023-03-03T20:51:29.183Z,20.40
2023-03-03T20:54:27.036Z,17.80
2023-03-03T20:56:59.705Z,19.20
2023-03-03T20:59:34.460Z,20.00
2023-03-03T21:02:12.064Z,19.50
2023-03-03T21:04:40.162Z,19.00
2023-03-03T21:07:07.052Z,18.60
2023-03-03T21:09:38.391Z,19.20
2023-03-03T21:12:29.275Z,18.40
2023-03-03T21:15:06.967Z,19.10
2023-03-03T21:17:34.149Z,19.10
2023-03-03T21:20:27.640Z,20.20
2023-03-03T21:23:03.205Z,18.70
2023-03-03T21:25:52.424Z,17.10
2023-03-03T21:36:37.358Z,18.50
2023-03-03T21:39:27.899Z,18.10
2023-03-03T21:42:02.029Z,18.80
2023-03-03T21:44:34.333Z,17.90
2023-03-03T21:47:03.491Z,19.00
2023-03-03T21:49:52.178Z,17.40
2023-03-03T21:52:21.453Z,18.70
2023-03-03T21:54:50.835Z,19.10
2023-03-03T21:57:19.548Z,17.80
2023-03-03T21:59:47.847Z,18.70
2023-03-03T22:02:16.260Z,17.90
2023-03-03T22:04:44.808Z,18.40
2023-03-03T22:07:13.184Z,18.40
2023-03-03T22:09:42.569Z,19.10
2023-03-03T22:12:12.180Z,18.10
2023-03-03T22:14:42.711Z,18.30
2023-03-03T22:17:11.795Z,19.10
2023-03-03T22:19:40.292Z,18.60
2023-03-03T22:22:09.427Z,19.10
2023-03-03T22:24:37.837Z,19.70
2023-03-03T22:27:07.840Z,19.90
2023-03-03T22:29:37.027Z,19.70
2023-03-03T22:32:05.530Z,18.50
2023-03-03T22:34:33.945Z,20.20
2023-03-03T22:37:02.094Z,19.10
2023-03-03T22:39:30.575Z,18.80
2023-03-03T22:41:58.853Z,17.90
2023-03-03T22:44:26.998Z,18.50
2023-03-03T22:46:55.231Z,18.30
2023-03-03T22:49:23.382Z,19.90
2023-03-03T22:51:51.514Z,20.20
2023-03-03T22:54:20.969Z,17.80
2023-03-03T22:56:49.041Z,17.80
2023-03-03T22:59:17.716Z,19.00
2023-03-03T23:01:48.029Z,18.70
2023-03-03T23:04:16.939Z,18.50
2023-03-03T23:06:47.562Z,18.60
2023-03-03T23:09:20.557Z,18.70
2023-03-03T23:11:50.152Z,18.00
2023-03-03T23:14:23.644Z,19.80
2023-03-03T23:16:58.509Z,18.20
2023-03-03T23:19:35.482Z,18.90
2023-03-03T23:22:10.144Z,18.80
2023-03-03T23:24:44.173Z,18.90
2023-03-03T23:27:20.792Z,18.70
2023-03-03T23:29:49.958Z,18.30
2023-03-03T23:32:19.175Z,18.70
2023-03-03T23:34:49.964Z,19.10
2023-03-03T23:37:23.121Z,18.10
2023-03-03T23:39:51.406Z,19.20
2023-03-03T23:42:19.464Z,19.30
2023-03-03T23:44:47.739Z,19.30
2023-03-03T23:47:17.359Z,18.40
2023-03-03T23:49:46.324Z,17.50
2023-03-03T23:52:14.546Z,18.60
2023-03-03T23:54:45.255Z,19.10
2023-03-03T23:57:13.762Z,19.20
2023-03-03T23:59:42.033Z,18.70
